Terminal Aerodrome Forecast
Issued by NWS

Home | Current Version | Previous Version | Text Only | Print | Product List | Glossary On
Versions: 1 2 3 4 5 6 7 8 9 10 11 12 13 14 15 16 17 18 19 20 21 22 23 24 25 26 27 28 29
419
FTAK31 PANC 051736
TAFAGK
TAF
PAGK 051736Z 0518/0618 VRB04KT P6SM SCT060 BKN150 WS020/15025KT
     FM060900 VRB03KT P6SM SCT060 BKN150=

USA.gov is the U.S. government's official web portal to all federal, state and local government web resources and services.